createdAt,value
2023-01-08T00:00:33.881Z,100083.75
2023-01-08T00:01:46.470Z,100081.25
2023-01-08T00:02:50.035Z,100085.84
2023-01-08T00:03:52.682Z,100085.19
2023-01-08T00:04:54.625Z,100088.81
2023-01-08T00:06:01.441Z,100085.47
2023-01-08T00:07:04.106Z,100084.63
2023-01-08T00:08:08.340Z,100084.75
2023-01-08T00:09:15.551Z,100088.41
2023-01-08T00:10:24.488Z,100083.25
2023-01-08T00:11:26.192Z,100086.91
2023-01-08T00:12:29.733Z,100088.00
2023-01-08T00:13:41.327Z,100089.84
2023-01-08T00:14:46.159Z,100086.34
2023-01-08T00:15:50.336Z,100088.00
2023-01-08T00:16:54.843Z,100082.69
2023-01-08T00:18:06.656Z,100077.38
2023-01-08T00:19:11.992Z,100081.03
2023-01-08T00:20:14.036Z,100081.03
2023-01-08T00:21:20.531Z,100075.72
2023-01-08T00:22:23.600Z,100079.06
2023-01-08T00:23:35.948Z,100070.41
2023-01-08T00:24:38.272Z,100078.38
2023-01-08T00:25:41.029Z,100076.69
2023-01-08T00:26:43.591Z,100069.69
2023-01-08T00:27:51.967Z,100072.34
2023-01-08T00:28:54.479Z,100073.19
2023-01-08T00:29:56.004Z,100068.72
2023-01-08T00:30:58.817Z,100075.72
2023-01-08T00:32:00.446Z,100075.56
2023-01-08T00:33:03.578Z,100072.78
2023-01-08T00:34:06.612Z,100080.75
2023-01-08T00:35:18.464Z,100076.13
2023-01-08T00:36:32.492Z,100072.63
2023-01-08T00:37:34.067Z,100076.13
2023-01-08T00:38:37.193Z,100084.94
2023-01-08T00:39:38.791Z,100081.28
2023-01-08T00:40:41.322Z,100083.78
2023-01-08T00:41:45.261Z,100080.28
2023-01-08T00:42:58.247Z,100081.13
2023-01-08T00:44:04.845Z,100073.03
2023-01-08T00:45:08.685Z,100069.53
2023-01-08T00:46:10.437Z,100065.91
2023-01-08T00:47:13.193Z,100062.25
2023-01-08T00:48:15.045Z,100067.44
2023-01-08T00:49:17.619Z,100063.94
2023-01-08T00:50:19.282Z,100066.41
2023-01-08T00:51:22.058Z,100059.47
2023-01-08T00:52:35.964Z,100061.94
2023-01-08T00:53:38.952Z,100060.31
2023-01-08T00:54:47.060Z,100062.78
2023-01-08T00:56:01.994Z,100062.78
2023-01-08T00:57:06.284Z,100069.91
2023-01-08T00:58:09.564Z,100060.13
2023-01-08T00:59:12.675Z,100059.16
2023-01-08T01:00:24.994Z,100059.28
2023-01-08T01:01:33.400Z,100050.34
2023-01-08T01:02:46.077Z,100050.34
2023-01-08T01:03:49.461Z,100047.69
2023-01-08T01:05:02.039Z,100044.06
2023-01-08T01:06:13.611Z,100043.22
2023-01-08T01:07:26.232Z,100035.38
2023-01-08T01:08:40.573Z,100040.69
2023-01-08T01:09:46.810Z,100052.16
2023-01-08T01:10:59.360Z,100056.63
2023-01-08T01:12:07.995Z,100063.63
2023-01-08T01:13:19.609Z,100068.94
2023-01-08T01:14:32.135Z,100057.47
2023-01-08T01:15:35.878Z,100052.16
2023-01-08T01:16:42.593Z,100044.06
2023-01-08T01:17:55.110Z,100037.06
2023-01-08T01:19:07.676Z,100042.38
2023-01-08T01:20:20.428Z,100035.38
2023-01-08T01:21:32.612Z,100035.38
2023-01-08T01:22:36.072Z,100046.00
2023-01-08T01:23:40.870Z,100044.38
2023-01-08T01:24:47.332Z,100049.69
2023-01-08T01:25:50.441Z,100053.97
2023-01-08T01:27:03.072Z,100047.03
2023-01-08T01:28:08.608Z,100047.03
2023-01-08T01:29:21.142Z,100039.06
2023-01-08T01:30:26.152Z,100046.84
2023-01-08T01:31:34.236Z,100040.69
2023-01-08T01:32:35.867Z,100043.34
2023-01-08T01:33:38.462Z,100053.00
2023-01-08T01:34:41.291Z,100043.22
2023-01-08T01:35:42.998Z,100042.38
2023-01-08T01:36:45.510Z,100042.38
2023-01-08T01:37:47.136Z,100039.72
2023-01-08T01:38:52.665Z,100037.91
2023-01-08T01:39:56.041Z,100042.38
2023-01-08T01:40:58.656Z,100038.75
2023-01-08T01:42:00.280Z,100043.91
2023-01-08T01:43:03.167Z,100045.72
2023-01-08T01:44:35.622Z,100044.06
2023-01-08T01:45:38.189Z,100045.03
2023-01-08T01:46:40.791Z,100044.06
2023-01-08T01:47:58.503Z,100038.75
2023-01-08T01:49:05.824Z,100043.22
2023-01-08T01:50:12.366Z,100044.91
2023-01-08T01:51:14.165Z,100040.56
2023-01-08T01:52:28.811Z,100042.38
2023-01-08T01:53:41.577Z,100051.31
2023-01-08T01:54:45.819Z,100042.38
2023-01-08T01:55:48.001Z,100041.53
2023-01-08T01:56:51.236Z,100039.72
2023-01-08T01:58:01.709Z,100037.06
2023-01-08T01:59:07.502Z,100035.25
2023-01-08T02:00:10.599Z,100035.38
2023-01-08T02:01:25.901Z,100035.38
2023-01-08T02:02:37.713Z,100031.06
2023-01-08T02:03:41.495Z,100033.72
2023-01-08T02:04:45.765Z,100027.72
2023-01-08T02:06:00.517Z,100025.91
2023-01-08T02:07:16.889Z,100019.75
2023-01-08T02:08:38.058Z,100022.41
2023-01-08T02:09:50.245Z,100025.06
2023-01-08T02:11:10.274Z,100022.56
2023-01-08T02:12:30.499Z,100016.41
2023-01-08T02:13:37.035Z,100025.34
2023-01-08T02:14:54.600Z,100018.22
2023-01-08T02:16:14.661Z,100011.09
2023-01-08T02:17:36.098Z,100016.41
2023-01-08T02:18:45.761Z,100010.25
2023-01-08T02:19:53.254Z,100005.78
2023-01-08T02:21:00.190Z,100002.16
2023-01-08T02:22:14.579Z,100006.47
2023-01-08T02:23:26.705Z,100000.47
2023-01-08T02:24:42.364Z,99998.78
2023-01-08T02:26:07.947Z,99988.34
2023-01-08T02:27:10.781Z,99984.00
2023-01-08T02:28:14.694Z,99984.00
2023-01-08T02:29:20.645Z,99983.16
2023-01-08T02:30:23.130Z,99984.97
2023-01-08T02:31:28.193Z,99981.34
2023-01-08T02:32:42.927Z,99982.19
2023-01-08T02:33:44.931Z,99975.19
2023-01-08T02:34:47.477Z,99977.84
2023-01-08T02:35:54.172Z,99973.50
2023-01-08T02:36:57.987Z,99977.84
2023-01-08T02:37:59.517Z,99981.47
2023-01-08T02:39:33.589Z,99970.03
2023-01-08T02:40:54.280Z,99970.16
2023-01-08T02:42:11.996Z,99972.81
2023-01-08T02:43:22.095Z,99968.34
2023-01-08T02:44:52.154Z,99971.00
2023-01-08T02:46:02.807Z,99969.19
2023-01-08T02:47:08.240Z,99963.88
2023-01-08T02:48:14.670Z,99967.22
2023-01-08T02:49:17.920Z,99962.88
2023-01-08T02:50:35.384Z,99961.91
2023-01-08T02:51:44.536Z,99953.81
2023-01-08T02:52:56.691Z,99959.94
2023-01-08T02:54:02.601Z,99959.94
2023-01-08T02:55:06.593Z,99950.97
2023-01-08T02:56:12.299Z,99942.03
2023-01-08T02:57:17.083Z,99943.72
2023-01-08T02:58:19.865Z,99951.69
2023-01-08T02:59:26.960Z,99950.69
2023-01-08T03:00:32.306Z,99949.72
2023-01-08T03:01:45.027Z,99951.53
2023-01-08T03:03:04.602Z,99947.06
2023-01-08T03:04:19.399Z,99949.72
2023-01-08T03:05:28.603Z,99947.06
2023-01-08T03:06:33.972Z,99944.41
2023-01-08T03:07:36.171Z,99947.91
2023-01-08T03:08:41.837Z,99947.06
2023-01-08T03:09:43.744Z,99942.59
2023-01-08T03:10:50.611Z,99938.09
2023-01-08T03:11:57.826Z,99937.28
2023-01-08T03:13:06.626Z,99928.47
2023-01-08T03:14:11.899Z,99931.13
2023-01-08T03:15:23.531Z,99929.59
2023-01-08T03:16:33.429Z,99926.09
2023-01-08T03:17:39.025Z,99919.94
2023-01-08T03:18:45.841Z,99922.75
2023-01-08T03:19:58.910Z,99921.09
2023-01-08T03:21:02.032Z,99926.41
2023-01-08T03:22:10.569Z,99931.72
2023-01-08T03:23:14.880Z,99927.38
2023-01-08T03:24:20.081Z,99923.03
2023-01-08T03:25:25.822Z,99921.38
2023-01-08T03:26:30.542Z,99932.00
2023-01-08T03:27:48.998Z,99915.38
2023-01-08T03:28:55.954Z,99918.03
2023-01-08T03:29:59.715Z,99921.69
2023-01-08T03:31:15.979Z,99921.69
2023-01-08T03:32:22.023Z,99911.06
2023-01-08T03:33:26.414Z,99927.00
2023-01-08T03:34:41.540Z,99921.69
2023-01-08T03:35:56.336Z,99932.31
2023-01-08T03:37:10.297Z,99925.31
2023-01-08T03:38:20.648Z,99932.31
2023-01-08T03:39:25.955Z,99927.97
2023-01-08T03:40:35.217Z,99925.19
2023-01-08T03:41:37.983Z,99927.84
2023-01-08T03:42:50.719Z,99936.78
2023-01-08T03:43:58.319Z,99934.97
2023-01-08T03:45:10.287Z,99926.16
2023-01-08T03:46:27.959Z,99924.34
2023-01-08T03:47:32.958Z,99915.53
2023-01-08T03:48:46.612Z,99920.84
2023-01-08T03:49:50.359Z,99914.69
2023-01-08T03:50:53.036Z,99912.03
2023-01-08T03:51:54.691Z,99917.34
2023-01-08T03:52:59.823Z,99913.84
2023-01-08T03:54:14.976Z,99920.00
2023-01-08T03:55:17.958Z,99918.31
2023-01-08T03:56:20.986Z,99911.38
2023-01-08T03:57:33.458Z,99906.06
2023-01-08T03:58:35.685Z,99906.06
2023-01-08T03:59:39.594Z,99907.72
2023-01-08T04:00:41.160Z,99908.72
2023-01-08T04:01:44.121Z,99900.75
2023-01-08T04:02:47.391Z,99911.38
2023-01-08T04:03:56.428Z,99916.69
2023-01-08T04:04:58.021Z,99916.69
2023-01-08T04:06:01.051Z,99909.38
2023-01-08T04:07:02.890Z,99908.72
2023-01-08T04:08:06.085Z,99906.88
2023-01-08T04:09:17.647Z,99907.72
2023-01-08T04:10:30.149Z,99910.38
2023-01-08T04:11:31.805Z,99904.06
2023-01-08T04:12:34.491Z,99910.22
2023-01-08T04:13:36.314Z,99906.72
2023-01-08T04:14:40.130Z,99907.41
2023-01-08T04:15:47.654Z,99910.78
2023-01-08T04:17:00.271Z,99902.81
2023-01-08T04:18:01.799Z,99909.94
2023-01-08T04:19:04.540Z,99900.16
2023-01-08T04:20:08.318Z,99901.78
2023-01-08T04:21:10.913Z,99903.47
2023-01-08T04:22:12.690Z,99906.13
2023-01-08T04:23:16.465Z,99896.19
2023-01-08T04:24:25.857Z,99899.84
2023-01-08T04:25:35.845Z,99890.19
2023-01-08T04:26:37.416Z,99899.00
2023-01-08T04:27:39.984Z,99890.19
2023-01-08T04:28:42.638Z,99893.69
2023-01-08T04:29:47.178Z,99898.16
2023-01-08T04:30:57.910Z,99901.78
2023-01-08T04:32:00.951Z,99900.81
2023-01-08T04:33:13.762Z,99909.75
2023-01-08T04:34:17.391Z,99901.13
2023-01-08T04:35:29.901Z,99907.09
2023-01-08T04:36:42.405Z,99902.94
2023-01-08T04:37:54.937Z,99903.94
2023-01-08T04:38:59.530Z,99899.59
2023-01-08T04:40:02.105Z,99905.75
2023-01-08T04:41:04.026Z,99902.25
2023-01-08T04:42:06.977Z,99905.75
2023-01-08T04:43:14.664Z,99906.72
2023-01-08T04:44:27.149Z,99905.06
2023-01-08T04:45:40.086Z,99901.56
2023-01-08T04:46:47.130Z,99895.44
2023-01-08T04:47:55.740Z,99891.78
2023-01-08T04:49:03.777Z,99894.44
2023-01-08T04:50:16.411Z,99889.28
2023-01-08T04:51:27.944Z,99888.44
2023-01-08T04:52:32.133Z,99889.41
2023-01-08T04:53:36.432Z,99888.44
2023-01-08T04:54:48.940Z,99881.44
2023-01-08T04:56:03.666Z,99881.44
2023-01-08T04:57:16.177Z,99879.81
2023-01-08T04:58:20.505Z,99880.63
2023-01-08T04:59:33.004Z,99881.44
2023-01-08T05:00:45.948Z,99876.13
2023-01-08T05:01:48.593Z,99879.81
2023-01-08T05:02:50.425Z,99877.28
2023-01-08T05:03:56.178Z,99886.94
2023-01-08T05:04:57.763Z,99878.97
2023-01-08T05:06:01.555Z,99874.50
2023-01-08T05:07:04.074Z,99871.13
2023-01-08T05:08:07.068Z,99874.50
2023-01-08T05:09:08.761Z,99879.81
2023-01-08T05:10:11.323Z,99879.63
2023-01-08T05:11:12.873Z,99877.81
2023-01-08T05:12:25.443Z,99877.81
2023-01-08T05:13:36.983Z,99883.97
2023-01-08T05:14:39.544Z,99875.16
2023-01-08T05:15:41.184Z,99874.19
2023-01-08T05:16:45.069Z,99878.66
2023-01-08T05:17:46.589Z,99879.50
2023-01-08T05:18:49.556Z,99873.34
2023-01-08T05:20:01.080Z,99864.38
2023-01-08T05:21:09.151Z,99868.88
2023-01-08T05:22:20.661Z,99871.53
2023-01-08T05:23:34.552Z,99867.88
2023-01-08T05:24:37.807Z,99869.69
2023-01-08T05:25:39.757Z,99862.72
2023-01-08T05:26:43.104Z,99864.69
2023-01-08T05:27:45.544Z,99863.88
2023-01-08T05:28:57.415Z,99867.50
2023-01-08T05:29:59.796Z,99869.44
2023-01-08T05:31:13.035Z,99861.66
2023-01-08T05:32:22.426Z,99857.63
2023-01-08T05:33:26.747Z,99864.75
2023-01-08T05:34:34.102Z,99864.91
2023-01-08T05:35:40.211Z,99858.88
2023-01-08T05:36:43.134Z,99867.03
2023-01-08T05:37:44.752Z,99869.69
2023-01-08T05:38:54.033Z,99875.97
2023-01-08T05:39:59.478Z,99870.66
2023-01-08T05:41:12.701Z,99876.13
2023-01-08T05:42:15.156Z,99869.97
2023-01-08T05:43:27.925Z,99874.28
2023-01-08T05:44:32.376Z,99874.28
2023-01-08T05:45:34.561Z,99868.97
2023-01-08T05:46:40.861Z,99870.66
2023-01-08T05:47:54.342Z,99865.34
2023-01-08T05:48:58.563Z,99867.03
2023-01-08T05:50:00.407Z,99859.91
2023-01-08T05:51:03.051Z,99856.41
2023-01-08T05:52:04.802Z,99857.25
2023-01-08T05:53:08.250Z,99861.72
2023-01-08T05:54:10.009Z,99858.34
2023-01-08T05:55:12.724Z,99853.03
2023-01-08T05:56:24.287Z,99851.41
2023-01-08T05:57:37.023Z,99855.03
2023-01-08T05:58:39.115Z,99856.84
2023-01-08T05:59:41.630Z,99856.69
2023-01-08T06:00:43.222Z,99863.66
2023-01-08T06:01:45.860Z,99860.03
2023-01-08T06:02:48.515Z,99857.25
2023-01-08T06:04:02.489Z,99857.06
2023-01-08T06:05:04.865Z,99854.44
2023-01-08T06:06:09.249Z,99856.09
2023-01-08T06:07:11.113Z,99853.44
2023-01-08T06:08:23.783Z,99859.59
2023-01-08T06:09:33.955Z,99856.78
2023-01-08T06:10:38.533Z,99863.78
2023-01-08T06:11:40.118Z,99858.47
2023-01-08T06:12:48.343Z,99853.16
2023-01-08T06:14:00.895Z,99854.81
2023-01-08T06:15:05.787Z,99860.13
2023-01-08T06:16:10.500Z,99854.81
2023-01-08T06:17:17.163Z,99849.53
2023-01-08T06:18:30.925Z,99854.81
2023-01-08T06:19:35.612Z,99848.50
2023-01-08T06:20:40.198Z,99852.19
2023-01-08T06:21:43.619Z,99854.66
2023-01-08T06:22:56.153Z,99850.19
2023-01-08T06:23:58.589Z,99851.88
2023-01-08T06:25:01.781Z,99841.25
2023-01-08T06:26:04.753Z,99842.09
2023-01-08T06:27:06.383Z,99842.09
2023-01-08T06:28:08.898Z,99839.28
2023-01-08T06:29:11.857Z,99841.91
2023-01-08T06:30:14.470Z,99846.25
2023-01-08T06:31:16.070Z,99870.16
2023-01-08T06:32:18.662Z,99894.72
2023-01-08T06:33:21.606Z,99936.53
2023-01-08T06:34:24.277Z,99940.47
2023-01-08T06:35:28.358Z,99941.34
2023-01-08T06:36:30.853Z,99945.88
2023-01-08T06:37:32.407Z,99939.44
2023-01-08T06:38:36.193Z,99939.47
2023-01-08T06:39:41.281Z,99939.50
2023-01-08T06:40:48.789Z,99940.38
2023-01-08T06:41:50.346Z,99940.25
2023-01-08T06:42:52.906Z,99943.34
2023-01-08T06:43:58.549Z,99941.25
2023-01-08T06:45:12.141Z,99938.19
2023-01-08T06:46:24.662Z,99932.50
2023-01-08T06:47:28.020Z,99945.03
2023-01-08T06:48:29.612Z,99939.06
2023-01-08T06:49:32.149Z,99941.84
2023-01-08T06:50:35.618Z,99942.84
2023-01-08T06:51:38.239Z,99942.13
2023-01-08T06:52:40.899Z,99939.47
2023-01-08T06:53:42.536Z,99932.50
2023-01-08T06:54:46.104Z,99929.03
2023-01-08T06:55:48.805Z,99930.69
2023-01-08T06:56:54.480Z,99930.69
2023-01-08T06:58:00.587Z,99927.19
2023-01-08T06:59:12.182Z,99924.53
2023-01-08T07:00:17.155Z,99929.84
2023-01-08T07:01:20.425Z,99919.22
2023-01-08T07:02:25.708Z,99915.59
2023-01-08T07:03:29.292Z,99907.81
2023-01-08T07:04:34.280Z,99902.34
2023-01-08T07:05:47.457Z,99913.94
2023-01-08T07:06:52.298Z,99920.06
2023-01-08T07:08:05.175Z,99916.56
2023-01-08T07:09:16.938Z,99906.97
2023-01-08T07:10:31.187Z,99916.56
2023-01-08T07:11:42.899Z,99917.56
2023-01-08T07:12:45.573Z,99927.19
2023-01-08T07:13:56.875Z,99915.91
2023-01-08T07:14:59.678Z,99925.66
2023-01-08T07:16:05.804Z,99928.19
2023-01-08T07:17:08.433Z,99924.00
2023-01-08T07:18:12.059Z,99925.09
2023-01-08T07:19:14.670Z,99933.78
2023-01-08T07:20:26.281Z,99935.72
2023-01-08T07:21:40.113Z,99946.31
2023-01-08T07:22:51.637Z,99946.31
2023-01-08T07:23:55.076Z,99951.63
2023-01-08T07:24:57.895Z,99947.31
2023-01-08T07:26:10.377Z,99949.97
2023-01-08T07:27:21.947Z,99956.22
2023-01-08T07:28:31.979Z,99944.94
2023-01-08T07:29:42.405Z,99947.59
2023-01-08T07:30:53.978Z,99942.28
2023-01-08T07:32:06.611Z,99944.22
2023-01-08T07:33:08.534Z,99930.13
2023-01-08T07:34:21.021Z,99940.72
2023-01-08T07:35:32.581Z,99936.44
2023-01-08T07:36:40.175Z,99933.78
2023-01-08T07:37:51.771Z,99935.59
2023-01-08T07:39:04.425Z,99939.22
2023-01-08T07:40:07.512Z,99940.19
2023-01-08T07:41:20.052Z,99934.88
2023-01-08T07:42:31.640Z,99936.56
2023-01-08T07:43:45.466Z,99936.84
2023-01-08T07:44:53.705Z,99929.56
2023-01-08T07:45:57.522Z,99933.22
2023-01-08T07:47:10.043Z,99933.06
2023-01-08T07:48:22.568Z,99934.88
2023-01-08T07:49:26.897Z,99930.28
2023-01-08T07:50:41.447Z,99927.63
2023-01-08T07:51:46.634Z,99935.59
2023-01-08T07:52:48.200Z,99932.09
2023-01-08T07:53:51.436Z,99925.13
2023-01-08T07:54:53.007Z,99924.00
2023-01-08T07:56:00.390Z,99919.53
2023-01-08T07:57:01.925Z,99925.66
2023-01-08T07:58:10.137Z,99920.38
2023-01-08T07:59:15.192Z,99917.72
2023-01-08T08:00:23.261Z,99918.69
2023-01-08T08:01:26.506Z,99914.50
2023-01-08T08:02:28.359Z,99922.47
2023-01-08T08:03:31.084Z,99916.31
2023-01-08T08:04:33.546Z,99921.78
2023-01-08T08:05:36.474Z,99916.47
2023-01-08T08:06:38.971Z,99918.41
2023-01-08T08:07:51.912Z,99926.53
2023-01-08T08:08:59.895Z,99916.22
2023-01-08T08:10:08.828Z,99913.84
2023-01-08T08:11:16.789Z,99913.00
2023-01-08T08:12:29.294Z,99909.78
2023-01-08T08:13:35.373Z,99914.41
2023-01-08T08:14:38.264Z,99907.72
2023-01-08T08:15:44.991Z,99912.28
2023-01-08T08:16:57.567Z,99908.94
2023-01-08T08:18:00.372Z,99909.25
2023-01-08T08:19:06.652Z,99912.84
2023-01-08T08:20:19.169Z,99907.84
2023-01-08T08:21:21.292Z,99911.72
2023-01-08T08:22:25.511Z,99913.69
2023-01-08T08:23:29.443Z,99916.50
2023-01-08T08:24:31.039Z,99913.97
2023-01-08T08:25:42.289Z,99915.94
2023-01-08T08:26:55.113Z,99918.72
2023-01-08T08:27:58.495Z,99917.03
2023-01-08T08:29:11.909Z,99916.06
2023-01-08T08:30:23.408Z,99919.56
2023-01-08T08:31:26.552Z,99924.84
2023-01-08T08:32:28.207Z,99912.56
2023-01-08T08:33:30.755Z,99913.56
2023-01-08T08:34:33.576Z,99911.19
2023-01-08T08:35:41.766Z,99914.53
2023-01-08T08:36:44.433Z,99912.84
2023-01-08T08:37:58.086Z,99910.06
2023-01-08T08:39:04.960Z,99914.53
2023-01-08T08:40:07.949Z,99913.84
2023-01-08T08:41:10.538Z,99920.09
2023-01-08T08:42:12.249Z,99909.50
2023-01-08T08:43:15.832Z,99913.97
2023-01-08T08:44:17.537Z,99906.03
2023-01-08T08:45:23.023Z,99907.00
2023-01-08T08:46:26.330Z,99900.84
2023-01-08T08:47:29.662Z,99900.03
2023-01-08T08:48:37.424Z,99899.19
2023-01-08T08:49:49.983Z,99893.91
2023-01-08T08:51:01.663Z,99893.91
2023-01-08T08:52:04.563Z,99893.91
2023-01-08T08:53:11.955Z,99894.88
2023-01-08T08:54:25.765Z,99897.50
2023-01-08T08:55:30.472Z,99890.53
2023-01-08T08:56:41.531Z,99890.53
2023-01-08T08:57:47.143Z,99885.25
2023-01-08T08:58:52.835Z,99886.06
2023-01-08T09:00:01.428Z,99882.59
2023-01-08T09:01:11.282Z,99881.63
2023-01-08T09:02:17.104Z,99885.97
2023-01-08T09:03:18.968Z,99880.66
2023-01-08T09:04:25.424Z,99876.22
2023-01-08T09:05:38.316Z,99876.06
2023-01-08T09:06:50.893Z,99881.22
2023-01-08T09:07:55.873Z,99880.38
2023-01-08T09:09:01.762Z,99882.88
2023-01-08T09:10:15.263Z,99886.25
2023-01-08T09:11:16.910Z,99880.94
2023-01-08T09:12:22.774Z,99876.50
2023-01-08T09:13:31.345Z,99886.09
2023-01-08T09:14:33.055Z,99877.16
2023-01-08T09:15:36.867Z,99885.13
2023-01-08T09:16:38.505Z,99882.47
2023-01-08T09:17:41.226Z,99880.50
2023-01-08T09:18:44.674Z,99883.16
2023-01-08T09:19:47.203Z,99879.41
2023-01-08T09:20:58.443Z,99873.28
2023-01-08T09:22:09.955Z,99885.53
2023-01-08T09:23:17.124Z,99879.13
2023-01-08T09:24:22.231Z,99878.97
2023-01-08T09:25:36.182Z,99873.69
2023-01-08T09:26:42.011Z,99870.75
2023-01-08T09:27:49.241Z,99879.41
2023-01-08T09:28:51.580Z,99877.44
2023-01-08T09:30:04.758Z,99875.34
2023-01-08T09:31:17.331Z,99871.56
2023-01-08T09:32:23.283Z,99868.81
2023-01-08T09:33:25.465Z,99873.94
2023-01-08T09:34:30.819Z,99877.16
2023-01-08T09:35:44.719Z,99878.69
2023-01-08T09:36:48.460Z,99869.91
2023-01-08T09:37:54.890Z,99881.19
2023-01-08T09:38:57.540Z,99873.25
2023-01-08T09:40:16.032Z,99874.78
2023-01-08T09:41:28.242Z,99872.97
2023-01-08T09:42:40.991Z,99877.13
2023-01-08T09:43:53.658Z,99881.31
2023-01-08T09:45:27.581Z,99871.25
2023-01-08T09:46:32.812Z,99877.13
2023-01-08T09:47:45.647Z,99875.03
2023-01-08T09:49:02.202Z,99873.75
2023-01-08T09:50:13.011Z,99882.28
2023-01-08T09:51:31.690Z,99872.06
2023-01-08T09:52:39.115Z,99868.03
2023-01-08T09:53:51.587Z,99873.59
2023-01-08T09:55:02.425Z,99865.88
2023-01-08T09:56:12.008Z,99860.00
2023-01-08T09:57:22.374Z,99855.06
2023-01-08T09:58:38.174Z,99861.09
2023-01-08T09:59:40.888Z,99865.25
2023-01-08T10:00:43.627Z,99865.94
2023-01-08T10:01:48.004Z,99859.50
2023-01-08T10:02:51.463Z,99870.81
2023-01-08T10:04:00.744Z,99865.34
2023-01-08T10:05:13.513Z,99858.94
2023-01-08T10:06:19.605Z,99855.16
2023-01-08T10:07:22.817Z,99853.19
2023-01-08T10:08:25.529Z,99846.72
2023-01-08T10:09:30.492Z,99850.09
2023-01-08T10:10:33.871Z,99844.78
2023-01-08T10:11:42.142Z,99841.16
2023-01-08T10:12:56.437Z,99841.84
2023-01-08T10:14:02.628Z,99832.06
2023-01-08T10:15:08.324Z,99835.56
2023-01-08T10:16:17.729Z,99834.53
2023-01-08T10:17:27.719Z,99833.56
2023-01-08T10:18:30.253Z,99829.09
2023-01-08T10:19:32.106Z,99838.03
2023-01-08T10:20:35.145Z,99830.25
2023-01-08T10:21:41.290Z,99826.03
2023-01-08T10:22:49.828Z,99824.69
2023-01-08T10:23:53.705Z,99811.72
2023-01-08T10:25:06.208Z,99817.16
2023-01-08T10:26:09.409Z,99819.13
2023-01-08T10:27:24.127Z,99812.28
2023-01-08T10:28:38.063Z,99807.16
2023-01-08T10:29:42.664Z,99805.47
2023-01-08T10:30:46.883Z,99803.66
2023-01-08T10:32:00.155Z,99806.31
2023-01-08T10:33:16.225Z,99803.53
2023-01-08T10:34:33.651Z,99795.25
2023-01-08T10:35:41.330Z,99793.28
2023-01-08T10:36:53.500Z,99788.66
2023-01-08T10:38:06.028Z,99781.41
2023-01-08T10:39:23.976Z,99783.03
2023-01-08T10:40:42.110Z,99787.25
2023-01-08T10:41:58.602Z,99781.78
2023-01-08T10:43:15.881Z,99780.78
2023-01-08T10:44:30.207Z,99773.81
2023-01-08T10:46:02.029Z,99773.97
2023-01-08T10:47:18.430Z,99775.78
2023-01-08T10:48:34.674Z,99777.47
2023-01-08T10:49:48.198Z,99765.19
2023-01-08T10:50:51.533Z,99764.19
2023-01-08T10:51:55.546Z,99764.88
2023-01-08T10:53:24.494Z,99752.97
2023-01-08T10:54:39.113Z,99753.53
2023-01-08T10:55:44.505Z,99751.66
2023-01-08T10:56:48.953Z,99742.72
2023-01-08T10:58:00.932Z,99745.38
2023-01-08T10:59:18.714Z,99737.44
2023-01-08T11:00:34.522Z,99741.78
2023-01-08T11:01:48.585Z,99735.59
2023-01-08T11:02:50.589Z,99737.44
2023-01-08T11:03:57.354Z,99729.47
2023-01-08T11:04:59.917Z,99737.44
2023-01-08T11:06:11.869Z,99733.81
2023-01-08T11:07:21.217Z,99738.84
2023-01-08T11:08:33.709Z,99734.06
2023-01-08T11:09:41.982Z,99729.28
2023-01-08T11:10:53.350Z,99725.47
2023-01-08T11:11:55.766Z,99728.00
2023-01-08T11:13:01.139Z,99719.72
2023-01-08T11:14:06.610Z,99716.06
2023-01-08T11:15:34.308Z,99717.44
2023-01-08T11:16:48.044Z,99719.78
2023-01-08T11:17:51.270Z,99707.88
2023-01-08T11:18:52.937Z,99711.19
2023-01-08T11:19:57.355Z,99707.25
2023-01-08T11:21:08.912Z,99710.56
2023-01-08T11:22:20.509Z,99711.94
2023-01-08T11:23:25.712Z,99708.97
2023-01-08T11:24:32.108Z,99701.53
2023-01-08T11:25:52.072Z,99708.34
2023-01-08T11:26:58.987Z,99701.09
2023-01-08T11:28:04.484Z,99701.75
2023-01-08T11:29:21.156Z,99695.97
2023-01-08T11:30:32.230Z,99686.03
2023-01-08T11:31:53.992Z,99684.06
2023-01-08T11:33:06.209Z,99689.19
2023-01-08T11:34:19.537Z,99682.06
2023-01-08T11:35:28.335Z,99672.28
2023-01-08T11:36:47.315Z,99674.94
2023-01-08T11:37:53.648Z,99673.91
2023-01-08T11:39:09.826Z,99674.63
2023-01-08T11:40:16.822Z,99678.94
2023-01-08T11:41:37.302Z,99672.63
2023-01-08T11:42:54.714Z,99673.31
2023-01-08T11:44:19.084Z,99666.00
2023-01-08T11:45:38.383Z,99664.84
2023-01-08T11:46:57.173Z,99666.69
2023-01-08T11:48:19.057Z,99658.69
2023-01-08T11:49:37.089Z,99659.53
2023-01-08T11:50:50.272Z,99653.38
2023-01-08T11:52:18.335Z,99648.06
2023-01-08T11:53:29.927Z,99646.44
2023-01-08T11:54:53.402Z,99646.44
2023-01-08T11:56:15.386Z,99648.41
2023-01-08T11:57:28.846Z,99653.88
2023-01-08T11:58:49.192Z,99654.88
2023-01-08T12:00:16.296Z,99664.13
2023-01-08T12:01:33.726Z,99709.47
2023-01-08T12:02:52.045Z,99721.72
2023-01-08T12:04:11.276Z,99704.69
2023-01-08T12:05:28.241Z,99709.09
2023-01-08T12:06:43.103Z,99704.72
2023-01-08T12:08:02.174Z,99702.78
2023-01-08T12:09:19.518Z,99694.88
2023-01-08T12:10:41.970Z,99696.31
2023-01-08T12:12:03.847Z,99686.81
2023-01-08T12:13:33.543Z,99687.97
2023-01-08T12:14:59.367Z,99670.66
2023-01-08T12:16:26.462Z,99679.94
2023-01-08T12:18:05.929Z,99677.28
2023-01-08T12:19:24.598Z,99666.50
2023-01-08T12:20:40.479Z,99671.69
2023-01-08T12:22:07.925Z,99680.19
2023-01-08T12:23:33.534Z,99677.06
2023-01-08T12:25:12.402Z,99667.69
2023-01-08T12:26:32.889Z,99665.84
2023-01-08T12:27:57.331Z,99657.88
2023-01-08T12:29:24.892Z,99649.91
2023-01-08T12:30:52.697Z,99657.38
2023-01-08T12:32:22.460Z,99666.44
2023-01-08T12:33:40.592Z,99661.31
2023-01-08T12:34:59.586Z,99656.97
2023-01-08T12:36:19.927Z,99660.78
2023-01-08T12:37:36.889Z,99661.75
2023-01-08T12:38:55.048Z,99660.06
2023-01-08T12:40:16.106Z,99658.41
2023-01-08T12:41:32.733Z,99658.41
2023-01-08T12:42:50.270Z,99661.06
2023-01-08T12:44:10.009Z,99656.59
2023-01-08T12:45:28.189Z,99650.28
2023-01-08T12:46:45.886Z,99653.78
2023-01-08T12:48:05.053Z,99656.44
2023-01-08T12:49:24.624Z,99655.47
2023-01-08T12:50:47.712Z,99652.81
2023-01-08T12:52:08.473Z,99648.19
2023-01-08T12:53:32.419Z,99646.38
2023-01-08T12:54:51.477Z,99637.44
2023-01-08T12:56:10.395Z,99638.41
2023-01-08T12:57:31.659Z,99643.88
2023-01-08T12:59:00.287Z,99647.19
2023-01-08T13:00:22.043Z,99633.09
2023-01-08T13:01:45.051Z,99631.28
2023-01-08T13:03:01.976Z,99634.59
2023-01-08T13:04:14.882Z,99624.00
2023-01-08T13:05:32.918Z,99623.03
2023-01-08T13:06:54.057Z,99625.38
2023-01-08T13:08:09.346Z,99628.03
2023-01-08T13:09:25.466Z,99628.69
2023-01-08T13:10:40.010Z,99624.75
2023-01-08T13:11:54.121Z,99624.16
2023-01-08T13:13:08.249Z,99626.34
2023-01-08T13:14:21.325Z,99623.56
2023-01-08T13:15:34.099Z,99626.03
2023-01-08T13:16:48.507Z,99611.63
2023-01-08T13:18:09.385Z,99610.66
2023-01-08T13:19:27.246Z,99619.28
2023-01-08T13:20:41.139Z,99611.31
2023-01-08T13:21:55.652Z,99607.84
2023-01-08T13:23:07.997Z,99614.16
2023-01-08T13:24:28.654Z,99613.97
2023-01-08T13:25:52.564Z,99613.31